Aérodrome :
LOGIN :

S'inscrire | Disclaimer

   EN    FR    IT 

 










Légende :    VFR   VFR Marginal   IFR   IFR Intensif   IFR Très Intensif
Visi : 
Plafond : 
>= 8 km
>= 3000ft
5 à 8 km
1000 à 3000 ft
1500m à 5 km
500 à 1000 ft
800 à 1500m
200 à 500 ft
< 800m
< 200 ft
Symboles :   Orages  Brouillard  Fortes neiges  Fortes précipitations  Vent > 20 kt
SIGMETs :   Divers  Orages  Givrage  Turbulence  Onde Orograph.  Cendres Volcan.







- Altitude de l'aérodrome : 124 ft
- Code IATA : RNS
- Voir les cartes d'approche


LFRN - Rennes

DERNIER METAR :
  • 300230Z AUTO 11008KT CAVOK 09/03 Q1002 NOSIG

METARs EXPIRÉS :
  • 300200Z AUTO 12008KT CAVOK 09/02 Q1002 NOSIG
  • 300130Z AUTO 11008KT CAVOK 09/02 Q1003 NOSIG
  • 300100Z AUTO 11009KT CAVOK 09/02 Q1003 NOSIG
  • 300030Z AUTO 11009KT CAVOK 10/02 Q1004 NOSIG
  • 300000Z AUTO 12009KT CAVOK 10/02 Q1004 NOSIG

TAF TAF LFRN
Valide du 30 à 00h jusqu'au 01 à 00h UTC


292300Z 3000/3024 12010KT CAVOK
BECMG 3005/3007 5000 RA SCT020CB BKN030
TEMPO 3006/3024 3000 +RA BKN020CB
TEMPO 3006/3011 BKN008
PROB30
TEMPO 3011/3019 2000 TSRA BKN015CB
BECMG 3009/3012 20010KT
BECMG 3019/3021 31010KT
TEMPO 3021/3024 30015G30KT
ATIS : +33 2 99 67 72 50
Pas de NOTAMs connus pour ce terrain.



MET'MAP, la Météo Aéronautique d'un coup d'oeil ! - Copyright ORBIFLY Décembre 2007 - Disclaimer

ORBIFLY MET'MAP TEAM :

Programmation & Développement : Alexandra Zaïnal
Conception & Développement : Baudouin d'Aumeries
Co-Programmation & Développement : Marc-Olivier Méhu
Soutien technique & logistique : Manuel Goepfert

Contact : metmap@orbifly.com




SOURCES & CREDITS :

   NOAA